Latest Weather Observations for Amberley

IDQ60801

Issued at 8:05 am EST Thursday 24 July 2014 (issued every 30 minutes, with the page automatically refreshed every 10 minutes)

About weather observations | Map of weather stations | Latest weather observations for QLD | Other Formats
Station Details ID: 040004 Name: AMBERLEY AMO Lat: -27.63 Lon: 152.71 Height: 24.2 m
Data from the previous 72 hours. | See also: Recent months at Amberley
Date/Time
EST
Temp
°C
App
Temp
°C
Dew
Point
Rel
Hum
%
Delta-T
°C
Wind Press
QNH
hPa
Press
MSL
hPa
Rain
since 9 am
mm
Dir
 
Spd
km/h
Gust
km/h
Spd
kts
Gust
kts
24/08:00am 10.4 10.2 9.2 92 0.6 W 0 7 0 4 1023.2 - 0.0
24/07:30am 8.6 8.1 8.0 96 0.3 W 0 0 0 0 1023.0 - 0.0
24/07:00am 7.8 7.2 7.2 96 0.3 CALM 0 0 0 0 1023.1 - 0.0
24/06:30am 6.6 5.7 6.2 97 0.2 CALM 0 0 0 0 1022.7 - 0.0
24/06:00am 7.6 6.9 6.9 95 0.3 W 0 0 0 0 1022.4 1022.5 0.0
24/05:30am 7.3 6.6 7.1 99 0.1 CALM 0 0 0 0 1022.2 - 0.0
24/05:28am 7.6 7.0 7.2 97 0.2 CALM 0 0 0 0 1022.1 - 0.0
24/05:00am 7.5 5.1 7.1 97 0.2 WNW 9 9 5 5 1021.8 - 0.0
24/04:30am 7.7 5.7 7.1 96 0.3 NNW 7 11 4 6 1021.7 - 0.0
24/04:00am 8.8 8.3 8.0 95 0.4 CALM 0 0 0 0 1021.6 - 0.0
24/03:30am 9.2 8.8 8.2 93 0.5 CALM 0 0 0 0 1021.5 - 0.0
24/03:00am 9.6 9.3 8.6 93 0.5 CALM 0 0 0 0 1021.8 1021.9 0.0
24/02:30am 9.6 9.3 8.8 95 0.4 CALM 0 0 0 0 1022.0 - 0.0
24/02:00am 9.9 9.6 8.7 92 0.6 CALM 0 0 0 0 1021.8 - 0.0
24/01:30am 10.1 8.7 8.9 92 0.6 WSW 6 7 3 4 1022.1 - 0.0
24/01:00am 10.2 9.9 8.8 91 0.7 CALM 0 0 0 0 1022.3 - 0.0
24/12:30am 10.1 9.9 8.9 92 0.6 CALM 0 0 0 0 1022.2 - 0.0
24/12:00am 9.6 9.2 8.4 92 0.6 SW 0 0 0 0 1022.4 1022.5 0.0
 
Date/Time
EST
Temp
°C
App
Temp
°C
Dew
Point
Rel
Hum
%
Delta-T
°C
Wind Press
QNH
hPa
Press
MSL
hPa
Rain
since 9 am
mm
Dir
 
Spd
km/h
Gust
km/h
Spd
kts
Gust
kts
23/11:30pm 9.9 9.6 8.5 91 0.7 CALM 0 0 0 0 1022.2 - 0.0
23/11:00pm 9.8 9.5 8.8 93 0.5 CALM 0 0 0 0 1022.5 - 0.0
23/10:30pm 9.8 9.5 8.6 92 0.6 CALM 0 0 0 0 1022.6 - 0.0
23/10:00pm 10.6 10.4 9.0 90 0.8 CALM 0 0 0 0 1022.6 - 0.0
23/09:30pm 12.5 11.3 9.7 83 1.4 S 6 9 3 5 1022.4 - 0.0
23/09:00pm 13.7 13.9 10.4 80 1.7 CALM 0 4 0 2 1022.4 1022.5 0.0
23/08:30pm 14.3 13.2 10.7 79 1.9 ENE 7 9 4 5 1022.0 - 0.0
23/08:00pm 15.3 13.7 10.3 72 2.6 ENE 9 13 5 7 1021.8 - 0.0
23/07:30pm 15.5 13.9 10.1 70 2.8 ENE 9 15 5 8 1021.5 - 0.0
23/07:00pm 15.9 13.5 10.2 69 3.0 ENE 13 15 7 8 1021.3 - 0.0
23/06:30pm 16.8 14.1 10.2 65 3.5 ENE 15 22 8 12 1020.9 - 0.0
23/06:00pm 17.3 14.1 9.9 62 3.9 ENE 17 26 9 14 1021.0 1021.1 0.0
23/05:30pm 18.0 14.5 8.9 55 4.7 ENE 17 26 9 14 1020.5 - 0.0
23/05:00pm 18.5 15.7 6.9 46 5.8 E 11 15 6 8 1020.0 - 0.0
23/04:30pm 20.1 16.5 6.6 41 6.8 E 15 20 8 11 1019.8 - 0.0
23/04:00pm 21.5 18.1 5.9 36 7.8 E 13 17 7 9 1019.7 - 0.0
23/03:30pm 21.7 19.0 5.7 35 8.0 E 9 13 5 7 1019.8 - 0.0
23/03:00pm 21.5 19.4 5.9 36 7.8 ENE 6 17 3 9 1019.8 1019.9 0.0
23/02:30pm 21.1 17.9 5.3 35 7.8 ENE 11 15 6 8 1020.0 - 0.0
23/02:00pm 20.9 18.7 6.4 39 7.3 W 7 13 4 7 1020.0 - 0.0
23/01:30pm 20.6 17.7 6.5 40 7.1 SW 11 17 6 9 1020.1 - 0.0
23/01:00pm 20.7 18.7 6.1 38 7.3 WNW 6 13 3 7 1020.4 - 0.0
23/12:30pm 20.7 18.3 7.2 41 6.9 NE 9 15 5 8 1020.7 - 0.0
23/12:00pm 19.4 17.2 7.9 47 5.9 NNW 9 13 5 7 1021.5 1021.6 0.0
23/11:30am 18.9 17.1 7.2 46 5.9 SSW 6 11 3 6 1022.4 - 0.0
23/11:00am 18.7 17.2 8.6 52 5.2 WNW 6 9 3 5 1022.9 - 0.0
23/10:30am 17.3 15.9 8.7 57 4.4 WSW 6 11 3 6 1023.4 - 0.0
23/10:00am 15.5 14.0 8.6 63 3.5 SW 6 13 3 7 1023.8 - 0.0
23/09:30am 14.4 13.4 8.9 69 2.8 W 4 11 2 6 1023.8 - 0.0
23/09:00am 12.3 10.9 9.5 83 1.4 WNW 7 9 4 5 1023.8 1023.9 0.4
23/08:30am 10.4 8.4 8.8 90 0.8 NW 9 11 5 6 1023.9 - 0.4
23/08:00am 8.0 7.3 7.1 94 0.4 CALM 0 0 0 0 1023.5 - 0.4
23/07:30am 6.0 5.0 5.5 97 0.2 CALM 0 0 0 0 1023.2 - 0.4
23/07:00am 3.6 2.1 3.1 97 0.2 CALM 0 6 0 3 1022.8 - 0.4
23/06:30am 3.2 0.3 2.7 96 0.2 WNW 7 9 4 5 1022.3 - 0.4
23/06:00am 3.7 2.2 3.2 97 0.2 CALM 0 0 0 0 1022.0 1022.1 0.4
23/05:30am 3.9 2.5 3.7 99 0.1 CALM 0 0 0 0 1021.6 - 0.4
23/05:29am 4.0 2.6 3.5 97 0.2 CALM 0 0 0 0 1021.6 - 0.4
23/05:00am 4.2 2.9 4.0 99 0.1 CALM 0 0 0 0 1021.2 - 0.4
23/04:44am 4.2 2.9 4.0 99 0.1 CALM 0 4 0 2 1021.2 - 0.4
23/04:30am 4.4 2.3 3.9 97 0.2 NW 4 7 2 4 1021.2 - 0.4
23/04:00am 4.5 3.2 4.3 99 0.1 CALM 0 0 0 0 1021.1 - 0.4
23/03:30am 5.7 3.3 5.2 97 0.2 NW 7 7 4 4 1020.9 - 0.4
23/03:00am 5.5 2.6 4.8 95 0.3 W 9 11 5 6 1021.2 1021.3 0.4
23/02:30am 5.0 3.8 4.8 99 0.1 CALM 0 0 0 0 1021.3 - 0.4
23/02:25am 5.1 4.0 4.9 99 0.1 CALM 0 0 0 0 1021.3 - 0.4
23/02:00am 5.5 4.5 5.5 100 0.0 CALM 0 0 0 0 1021.6 - 0.4
23/01:30am 5.6 4.5 5.1 97 0.2 CALM 0 0 0 0 1021.4 - 0.4
23/01:00am 5.8 4.7 5.3 97 0.2 CALM 0 0 0 0 1021.4 - 0.4
23/12:35am 7.3 6.5 6.6 95 0.3 CALM 0 0 0 0 1021.3 - 0.4
23/12:30am 7.1 6.4 7.1 100 0.0 CALM 0 0 0 0 1021.3 - 0.4
23/12:00am 7.3 6.6 6.9 97 0.2 CALM 0 0 0 0 1021.7 1021.8 0.4
 
Date/Time
EST
Temp
°C
App
Temp
°C
Dew
Point
Rel
Hum
%
Delta-T
°C
Wind Press
QNH
hPa
Press
MSL
hPa
Rain
since 9 am
mm
Dir
 
Spd
km/h
Gust
km/h
Spd
kts
Gust
kts
22/11:50pm 6.9 6.1 6.7 99 0.1 CALM 0 0 0 0 1021.7 - 0.4
22/11:30pm 7.7 7.1 7.5 99 0.1 CALM 0 0 0 0 1021.6 - 0.4
22/11:00pm 9.1 8.9 8.9 99 0.1 CALM 0 0 0 0 1021.8 - 0.4
22/10:57pm 9.2 8.9 8.8 97 0.2 CALM 0 0 0 0 1021.8 - 0.4
22/10:54pm 9.2 8.9 8.8 97 0.2 CALM 0 0 0 0 1021.9 - 0.4
22/10:30pm 8.7 8.4 8.5 99 0.1 CALM 0 0 0 0 1022.1 - 0.4
22/10:15pm 9.5 9.2 8.7 95 0.4 CALM 0 0 0 0 1022.1 - 0.4
22/10:00pm 9.8 9.6 9.2 96 0.3 CALM 0 0 0 0 1022.1 - 0.4
22/09:30pm 10.1 9.9 9.1 93 0.5 CALM 0 0 0 0 1022.2 - 0.4
22/09:00pm 11.1 11.2 10.3 95 0.4 CALM 0 0 0 0 1022.0 1022.1 0.4
22/08:30pm 12.1 11.2 10.7 91 0.7 S 6 7 3 4 1021.9 - 0.4
22/08:00pm 12.1 10.9 10.3 89 0.9 S 7 9 4 5 1021.6 - 0.4
22/07:30pm 11.6 10.2 9.6 87 1.0 SE 7 9 4 5 1021.4 - 0.4
22/07:00pm 13.7 13.2 10.8 83 1.5 NW 4 7 2 4 1021.1 - 0.4
22/06:30pm 14.7 12.9 10.9 78 2.0 NE 11 13 6 7 1020.6 - 0.4
22/06:00pm 15.6 13.2 10.0 69 2.9 E 13 17 7 9 1020.5 1020.6 0.4
22/05:30pm 15.9 13.0 9.5 66 3.3 E 15 19 8 10 1020.1 - 0.4
22/05:00pm 16.6 13.0 9.7 63 3.6 E 19 26 10 14 1019.5 - 0.4
22/04:30pm 18.2 13.5 7.8 50 5.3 E 22 32 12 17 1019.2 - 0.4
22/04:00pm 20.5 18.0 6.6 40 7.0 NNW 9 11 5 6 1018.6 - 0.4
22/03:30pm 19.8 17.7 8.2 47 6.0 NNW 9 15 5 8 1018.3 - 0.4
22/03:00pm 19.7 17.6 9.7 52 5.3 SW 11 19 6 10 1018.4 1018.4 0.4
22/02:30pm 20.4 19.7 10.0 51 5.6 SW 4 9 2 5 1018.2 - 0.4
22/02:00pm 20.6 19.5 9.8 50 5.8 SW 6 11 3 6 1018.3 - 0.4
22/01:30pm 21.1 19.7 9.7 48 6.1 W 7 13 4 7 1018.7 - 0.4
22/01:00pm 21.1 20.2 10.7 51 5.7 NW 6 15 3 8 1019.2 - 0.4
22/12:30pm 19.8 18.5 10.1 53 5.2 NW 7 11 4 6 1019.9 - 0.4
22/12:00pm 19.0 18.2 11.1 60 4.3 SSW 6 11 3 6 1020.5 1020.6 0.4
22/11:30am 18.1 17.1 10.9 63 3.9 SSE 7 9 4 5 1021.3 - 0.4
22/11:00am 16.8 16.7 12.0 73 2.6 W 4 9 2 5 1022.0 - 0.4
22/10:30am 15.1 15.1 12.5 84 1.4 NNW 4 9 2 5 1022.5 - 0.4
22/10:00am 13.1 12.6 12.0 93 0.6 NW 6 7 3 4 1022.9 - 0.4
22/09:30am 12.4 12.8 11.4 94 0.5 CALM 0 0 0 0 1022.8 - 0.2
22/09:15am 12.2 12.6 11.2 94 0.5 CALM 0 0 0 0 1022.9 - 0.2
22/09:00am 12.2 12.5 11.0 92 0.6 CALM 0 0 0 0 1022.9 1023.0 1.0
22/08:30am 11.4 11.6 10.6 95 0.4 CALM 0 0 0 0 1022.8 - 1.0
22/08:09am 10.8 10.9 10.2 96 0.3 CALM 0 0 0 0 1022.7 - 1.0
22/08:00am 10.5 10.6 10.1 97 0.2 CALM 0 0 0 0 1022.7 - 1.0
22/07:30am 8.4 7.2 8.0 97 0.2 NW 4 7 2 4 1022.5 - 1.0
22/07:00am 7.3 5.5 7.1 99 0.1 NNW 6 7 3 4 1022.2 - 1.0
22/06:30am 7.4 6.7 7.0 97 0.2 CALM 0 0 0 0 1021.8 - 1.0
22/06:00am 7.2 6.1 7.0 99 0.1 NNW 2 6 1 3 1021.7 1021.8 1.0
22/05:30am 6.8 6.0 6.6 99 0.1 CALM 0 0 0 0 1021.4 - 1.0
22/05:02am 6.5 5.7 6.3 99 0.1 CALM 0 0 0 0 1021.2 - 1.0
22/05:00am 6.6 5.8 6.4 99 0.1 CALM 0 0 0 0 1021.2 - 1.0
22/04:55am 6.8 5.9 6.1 95 0.3 CALM 0 0 0 0 1021.2 - 1.0
22/04:30am 6.7 5.9 6.5 99 0.1 CALM 0 0 0 0 1021.1 - 1.0
22/04:13am 6.9 6.1 6.7 99 0.1 CALM 0 0 0 0 1021.0 - 1.0
22/04:00am 7.4 6.7 7.0 97 0.2 CALM 0 0 0 0 1021.0 - 1.0
22/03:40am 7.5 6.8 7.1 97 0.2 CALM 0 0 0 0 1021.0 - 1.0
22/03:30am 7.5 6.9 7.3 99 0.1 CALM 0 0 0 0 1021.1 - 1.0
22/03:06am 7.8 7.2 7.4 97 0.2 CALM 0 0 0 0 1021.3 - 1.0
22/03:00am 7.7 7.2 7.7 100 0.0 CALM 0 0 0 0 1021.3 1021.4 1.0
22/02:44am 7.7 5.8 7.5 99 0.1 NW 7 9 4 5 1021.3 - 1.0
22/02:30am 7.5 6.1 7.3 99 0.1 NNW 4 7 2 4 1021.3 - 1.0
22/02:00am 7.1 6.0 6.9 99 0.1 W 2 9 1 5 1021.3 - 1.0
22/01:30am 7.4 6.8 7.2 99 0.1 CALM 0 0 0 0 1021.4 - 1.0
22/01:12am 8.1 7.6 7.9 99 0.1 CALM 0 0 0 0 1021.6 - 1.0
22/01:00am 8.2 7.7 7.8 97 0.2 CALM 0 0 0 0 1021.7 - 1.0
22/12:30am 9.4 9.2 9.2 99 0.1 CALM 0 0 0 0 1021.8 - 1.0
22/12:28am 9.9 9.9 9.9 100 0.0 CALM 0 6 0 3 1021.8 - 1.0
22/12:14am 9.0 7.3 8.4 96 0.3 W 7 9 4 5 1021.9 - 1.0
22/12:00am 8.4 7.2 8.0 97 0.2 SSW 4 11 2 6 1022.1 1022.2 1.0
 
Date/Time
EST
Temp
°C
App
Temp
°C
Dew
Point
Rel
Hum
%
Delta-T
°C
Wind Press
QNH
hPa
Press
MSL
hPa
Rain
since 9 am
mm
Dir
 
Spd
km/h
Gust
km/h
Spd
kts
Gust
kts
21/11:51pm 9.9 9.9 9.7 99 0.1 CALM 0 0 0 0 1022.1 - 1.0
21/11:30pm 9.9 9.9 9.9 100 0.0 CALM 0 0 0 0 1022.3 - 1.0
21/11:08pm 10.8 11.0 10.4 97 0.2 CALM 0 0 0 0 1022.4 - 1.0
21/11:00pm 11.1 11.3 10.7 97 0.2 CALM 0 0 0 0 1022.4 - 1.0
21/10:30pm 11.8 10.6 10.4 91 0.7 SSW 7 7 4 4 1022.5 - 1.0
21/10:00pm 13.0 11.9 10.7 86 1.2 SSW 7 9 4 5 1022.7 - 1.0
21/09:30pm 13.4 12.1 11.1 86 1.2 S 9 11 5 6 1022.4 - 1.0
21/09:00pm 15.0 14.0 11.0 77 2.1 S 7 7 4 4 1022.2 1022.3 1.0
21/08:30pm 14.3 12.9 10.9 80 1.8 S 9 11 5 6 1022.2 - 1.0
21/08:00pm 16.0 14.4 11.5 74 2.4 E 11 15 6 8 1022.1 - 1.0
21/07:30pm 16.7 15.0 11.3 70 2.9 ENE 11 15 6 8 1022.0 - 1.0
21/07:00pm 16.9 14.4 10.9 67 3.2 ENE 15 22 8 12 1021.9 - 1.0
21/06:30pm 17.4 14.3 10.4 63 3.7 ENE 17 22 9 12 1021.5 - 1.0
21/06:00pm 17.9 14.5 10.4 61 4.0 ENE 19 26 10 14 1021.1 1021.2 1.0
21/05:30pm 18.2 15.5 10.5 60 4.1 ENE 15 20 8 11 1020.8 - 1.0
21/05:00pm 18.4 15.1 10.8 61 4.1 ENE 19 22 10 12 1020.5 - 1.0
21/04:30pm 18.5 17.4 10.7 60 4.2 NNE 7 9 4 5 1020.2 - 1.0
21/04:00pm 17.3 16.2 13.2 77 2.3 ESE 11 11 6 6 1020.0 - 0.8
21/03:30pm 19.9 18.2 9.8 52 5.4 ESE 9 13 5 7 1019.8 - 0.0
21/03:00pm 20.0 18.1 10.4 54 5.2 E 11 15 6 8 1019.8 1019.9 0.0
21/02:30pm 20.1 16.7 10.5 54 5.2 ESE 19 24 10 13 1019.8 - 0.0
21/02:00pm 20.3 17.2 10.3 52 5.4 E 17 20 9 11 1019.7 - 0.0
21/01:30pm 20.9 18.5 10.2 50 5.8 NE 13 19 7 10 1019.6 - 0.0
21/01:00pm 22.0 20.1 10.5 48 6.3 ENE 11 17 6 9 1020.0 - 0.0
21/12:30pm 20.3 17.8 9.6 50 5.7 E 13 15 7 8 1020.6 - 0.0
21/12:00pm 20.2 17.7 9.7 51 5.6 ESE 13 19 7 10 1021.3 1021.4 0.0
21/11:30am 20.9 19.7 10.4 51 5.7 ESE 7 13 4 7 1021.9 - 0.0
21/11:00am 19.6 18.3 10.1 54 5.1 E 7 19 4 10 1022.7 - 0.0
21/10:30am 18.8 17.8 10.2 57 4.6 WSW 6 11 3 6 1023.1 - 0.0
21/10:00am 17.4 16.3 9.8 61 4.0 SW 6 15 3 8 1023.4 - 0.0
21/09:30am 16.3 14.5 9.5 64 3.5 SSW 9 15 5 8 1023.5 - 0.0
21/09:00am 15.1 13.6 9.0 67 3.1 WSW 7 11 4 6 1023.6 1023.7 0.0
21/08:30am 12.7 10.9 7.8 72 2.4 NW 7 9 4 5 1023.8 - 0.0

Other Formats:

Comma delimited format used in spreadsheet applications
http://www.bom.gov.au/fwo/IDQ60801/IDQ60801.94568.axf

JavaScript Object Notation format (JSON) in row-major order
http://www.bom.gov.au/fwo/IDQ60801/IDQ60801.94568.json